St. Elmo — WDG2405 — position and weather

sailwx.info

Track history (hours):
 
Tides and Currents Weather Stations Pressure Air Temp Water Temp Dewpoint Dewpoint Depression Visibility Wind Speed Wind Dir Waves Ship Positions

St. Elmo

Owner: Marquette Transportation Company Gulf-Inland, LLC, Jefferson, LA. More information available from US FCC via Universal Licensing System and Coast Guard Vessel Documentation Center.

Last reported at 2017-Aug-22 13:11 UTC. Time now 2017-Aug-22 16:54 UTC.
Position N 29°45' W 095°06'.

Length 18 m; draft 3 m.

Type: . MMSI: 367515330.

Date/timePositionNaut miles runAvg speedWind from/ knotsBaromVisibWave heightAir tempDewpointWater temp
2017-Aug-22 13:11N 29°45' W 095°06'1 5.2
2017-Aug-22 12:58N 29°46' W 095°04'2 0.2
2017-Aug-22 03:11N 29°44' W 095°03'0 1.4
2017-Aug-22 03:00N 29°44' W 095°03'3 1.6
2017-Aug-22 01:22N 29°46' W 095°05'0 0.4
2017-Aug-22 01:00N 29°46' W 095°05'0 0.0
2017-Aug-22 00:29N 29°46' W 095°05'0 0.0
2017-Aug-21 22:58N 29°46' W 095°05'0 0.0
2017-Aug-21 22:30N 29°46' W 095°05'0 0.0
2017-Aug-21 22:00N 29°46' W 095°05'0 0.0
2017-Aug-21 21:30N 29°46' W 095°05'0 0.0
2017-Aug-21 21:00N 29°46' W 095°05'0 0.0
2017-Aug-21 20:29N 29°46' W 095°05'0 0.0
2017-Aug-21 20:00N 29°46' W 095°05'0 0.0
2017-Aug-21 19:30N 29°46' W 095°05'0 0.0
2017-Aug-21 18:54N 29°46' W 095°05'0 0.0
2017-Aug-21 18:30N 29°46' W 095°05'0 0.0
2017-Aug-21 18:00N 29°46' W 095°05'0 0.0
2017-Aug-21 17:30N 29°46' W 095°05'0 0.0
2017-Aug-21 17:00N 29°46' W 095°05'0 0.0
2017-Aug-21 16:28N 29°46' W 095°05'0 0.0
2017-Aug-21 16:00N 29°46' W 095°05'0 0.0
2017-Aug-21 15:29N 29°46' W 095°05'0 0.0
2017-Aug-21 15:00N 29°46' W 095°05'0 0.0
2017-Aug-21 07:36N 29°46' W 095°05'0 0.0
2017-Aug-21 07:30N 29°46' W 095°05'1 0.5
2017-Aug-21 04:37N 29°45' W 095°06'1 0.1
2017-Aug-20 15:34N 29°45' W 095°06'1 2.2
2017-Aug-20 15:17N 29°46' W 095°05'0 0.3
2017-Aug-20 14:55N 29°46' W 095°05'0 0.0
2017-Aug-20 14:30N 29°46' W 095°05'0 0.0
2017-Aug-20 13:59N 29°46' W 095°05'0 0.0
2017-Aug-20 13:30N 29°46' W 095°05'0 0.0
2017-Aug-20 13:00N 29°46' W 095°05'0 0.0
2017-Aug-20 12:30N 29°46' W 095°05'0 0.1
2017-Aug-20 10:39N 29°46' W 095°05'0 0.9
2017-Aug-20 10:30N 29°46' W 095°05'0 0.0
2017-Aug-20 09:53N 29°46' W 095°05'0 0.0
2017-Aug-20 09:30N 29°46' W 095°05'0 0.0
2017-Aug-20 09:00N 29°46' W 095°05'0 0.0
2017-Aug-20 08:30N 29°46' W 095°05'0 0.0
2017-Aug-20 08:00N 29°46' W 095°05'0 0.0
2017-Aug-20 07:30N 29°46' W 095°05'0 0.0
2017-Aug-20 07:00N 29°46' W 095°05'0 0.0
2017-Aug-20 06:30N 29°46' W 095°05'0 0.0
2017-Aug-20 06:00N 29°46' W 095°05'0 0.0
2017-Aug-20 05:30N 29°46' W 095°05'0 0.0
2017-Aug-20 05:00N 29°46' W 095°05'0 0.0
2017-Aug-20 04:29N 29°46' W 095°05'0 0.0
2017-Aug-20 04:00N 29°46' W 095°05'0 0.0
2017-Aug-20 03:30N 29°46' W 095°05'0 0.0
2017-Aug-20 03:00N 29°46' W 095°05'3 1.4
2017-Aug-20 00:37N 29°44' W 095°09'1 5.5
2017-Aug-20 00:26N 29°44' W 095°10'4 0.2
2017-Aug-19 05:53N 29°46' W 095°05'0 0.4
2017-Aug-19 05:25N 29°46' W 095°05'0 0.1
2017-Aug-19 04:58N 29°46' W 095°05'0 0.0
2017-Aug-19 04:22N 29°46' W 095°05'0 0.0
2017-Aug-19 04:00N 29°46' W 095°05'0 0.0
2017-Aug-19 03:25N 29°46' W 095°05'0 0.0
2017-Aug-19 02:56N 29°46' W 095°05'0 0.2
2017-Aug-19 02:30N 29°46' W 095°05'0 0.0
2017-Aug-19 02:00N 29°46' W 095°05'4 2.6
2017-Aug-19 00:33N 29°44' W 095°09'0 6.4
2017-Aug-19 00:29N 29°45' W 095°10'4 0.2
2017-Aug-18 06:38N 29°45' W 095°06'1 5.0
2017-Aug-18 06:28N 29°46' W 095°05'4 6.3
2017-Aug-18 05:53N 29°44' W 095°01'2 6.4
2017-Aug-18 05:30N 29°42' W 094°60'3 6.9
2017-Aug-18 05:00N 29°39' W 094°58'3 4.5
2017-Aug-18 04:26N 29°37' W 095°00'1 3.0
2017-Aug-18 04:00N 29°37' W 095°01'0 0.1
2017-Aug-18 03:24N 29°37' W 095°02'0 0.0
2017-Aug-18 02:57N 29°37' W 095°02'0 0.0
2017-Aug-17 23:27N 29°37' W 095°02'0 0.0
2017-Aug-17 22:50N 29°37' W 095°02'0 0.0
2017-Aug-17 22:29N 29°37' W 095°02'0 0.0
2017-Aug-17 22:00N 29°37' W 095°02'0 0.0
2017-Aug-17 21:30N 29°37' W 095°02'0 0.0
2017-Aug-17 21:00N 29°37' W 095°02'0 0.0
2017-Aug-17 20:30N 29°37' W 095°02'0 0.0
2017-Aug-17 19:57N 29°37' W 095°02'0 0.1
2017-Aug-17 19:30N 29°37' W 095°01'0 0.0
2017-Aug-17 19:00N 29°37' W 095°01'0 0.3
2017-Aug-17 18:30N 29°37' W 095°01'3 6.1
2017-Aug-17 18:00N 29°37' W 094°58'2 3.6
2017-Aug-17 17:30N 29°39' W 094°58'3 6.1
2017-Aug-17 17:00N 29°41' W 094°59'4 5.7
2017-Aug-17 16:21N 29°44' W 095°03'6 0.5
2017-Aug-17 03:53N 29°44' W 095°09'4 0.7
2017-Aug-16 22:23N 29°46' W 095°05'4 0.6
2017-Aug-16 16:26N 29°44' W 095°09'0 0.0
2017-Aug-15 06:46N 29°44' W 095°09'3 0.2
2017-Aug-14 09:21N 29°46' W 095°05'1 4.0
2017-Aug-14 09:00N 29°45' W 095°04'3 4.9
2017-Aug-14 08:24N 29°43' W 095°01'2 4.5
2017-Aug-14 07:59N 29°42' W 094°60'3 5.3
2017-Aug-14 07:30N 29°40' W 094°58'3 5.3
2017-Aug-14 07:00N 29°37' W 094°57'3 5.5
2017-Aug-14 06:30N 29°35' W 094°56'3 5.5
2017-Aug-14 05:57N 29°32' W 094°54'2 0.1
2017-Aug-12 16:00N 29°34' W 094°55'2 3.4
2017-Aug-12 15:30N 29°36' W 094°57'2 3.0
2017-Aug-12 14:48N 29°37' W 094°59'1 3.4
2017-Aug-12 14:30N 29°37' W 094°60'1 3.0
2017-Aug-12 14:00N 29°37' W 095°01'0 0.2
2017-Aug-12 13:30N 29°37' W 095°01'  
Track history (hours):
 
Tides and Currents Weather Stations Pressure Air Temp Water Temp Dewpoint Dewpoint Depression Visibility Wind Speed Wind Dir Waves Ship Positions

St. Elmo

Owner: Marquette Transportation Company Gulf-Inland, LLC, Jefferson, LA. More information available from US FCC via Universal Licensing System and Coast Guard Vessel Documentation Center.

Last reported at 2017-Aug-22 13:11 UTC. Time now 2017-Aug-22 16:54 UTC.
Position N 29°45' W 095°06'.

Length 18 m; draft 3 m.

Type: . MMSI: 367515330.

Date/timePositionNaut miles runAvg speedWind from/ knotsBaromVisibWave heightAir tempDewpointWater temp
2017-Aug-22 13:11N 29°45' W 095°06'1 5.2
2017-Aug-22 12:58N 29°46' W 095°04'2 0.2
2017-Aug-22 03:11N 29°44' W 095°03'0 1.4
2017-Aug-22 03:00N 29°44' W 095°03'3 1.6
2017-Aug-22 01:22N 29°46' W 095°05'0 0.4
2017-Aug-22 01:00N 29°46' W 095°05'0 0.0
2017-Aug-22 00:29N 29°46' W 095°05'0 0.0
2017-Aug-21 22:58N 29°46' W 095°05'0 0.0
2017-Aug-21 22:30N 29°46' W 095°05'0 0.0
2017-Aug-21 22:00N 29°46' W 095°05'0 0.0
2017-Aug-21 21:30N 29°46' W 095°05'0 0.0
2017-Aug-21 21:00N 29°46' W 095°05'0 0.0
2017-Aug-21 20:29N 29°46' W 095°05'0 0.0
2017-Aug-21 20:00N 29°46' W 095°05'0 0.0
2017-Aug-21 19:30N 29°46' W 095°05'0 0.0
2017-Aug-21 18:54N 29°46' W 095°05'0 0.0
2017-Aug-21 18:30N 29°46' W 095°05'0 0.0
2017-Aug-21 18:00N 29°46' W 095°05'0 0.0
2017-Aug-21 17:30N 29°46' W 095°05'0 0.0
2017-Aug-21 17:00N 29°46' W 095°05'0 0.0
2017-Aug-21 16:28N 29°46' W 095°05'0 0.0
2017-Aug-21 16:00N 29°46' W 095°05'0 0.0
2017-Aug-21 15:29N 29°46' W 095°05'0 0.0
2017-Aug-21 15:00N 29°46' W 095°05'0 0.0
2017-Aug-21 07:36N 29°46' W 095°05'0 0.0
2017-Aug-21 07:30N 29°46' W 095°05'1 0.5
2017-Aug-21 04:37N 29°45' W 095°06'1 0.1
2017-Aug-20 15:34N 29°45' W 095°06'1 2.2
2017-Aug-20 15:17N 29°46' W 095°05'0 0.3
2017-Aug-20 14:55N 29°46' W 095°05'0 0.0
2017-Aug-20 14:30N 29°46' W 095°05'0 0.0
2017-Aug-20 13:59N 29°46' W 095°05'0 0.0
2017-Aug-20 13:30N 29°46' W 095°05'0 0.0
2017-Aug-20 13:00N 29°46' W 095°05'0 0.0
2017-Aug-20 12:30N 29°46' W 095°05'0 0.1
2017-Aug-20 10:39N 29°46' W 095°05'0 0.9
2017-Aug-20 10:30N 29°46' W 095°05'0 0.0
2017-Aug-20 09:53N 29°46' W 095°05'0 0.0
2017-Aug-20 09:30N 29°46' W 095°05'0 0.0
2017-Aug-20 09:00N 29°46' W 095°05'0 0.0
2017-Aug-20 08:30N 29°46' W 095°05'0 0.0
2017-Aug-20 08:00N 29°46' W 095°05'0 0.0
2017-Aug-20 07:30N 29°46' W 095°05'0 0.0
2017-Aug-20 07:00N 29°46' W 095°05'0 0.0
2017-Aug-20 06:30N 29°46' W 095°05'0 0.0
2017-Aug-20 06:00N 29°46' W 095°05'0 0.0
2017-Aug-20 05:30N 29°46' W 095°05'0 0.0
2017-Aug-20 05:00N 29°46' W 095°05'0 0.0
2017-Aug-20 04:29N 29°46' W 095°05'0 0.0
2017-Aug-20 04:00N 29°46' W 095°05'0 0.0
2017-Aug-20 03:30N 29°46' W 095°05'0 0.0
2017-Aug-20 03:00N 29°46' W 095°05'3 1.4
2017-Aug-20 00:37N 29°44' W 095°09'1 5.5
2017-Aug-20 00:26N 29°44' W 095°10'4 0.2
2017-Aug-19 05:53N 29°46' W 095°05'0 0.4
2017-Aug-19 05:25N 29°46' W 095°05'0 0.1
2017-Aug-19 04:58N 29°46' W 095°05'0 0.0
2017-Aug-19 04:22N 29°46' W 095°05'0 0.0
2017-Aug-19 04:00N 29°46' W 095°05'0 0.0
2017-Aug-19 03:25N 29°46' W 095°05'0 0.0
2017-Aug-19 02:56N 29°46' W 095°05'0 0.2
2017-Aug-19 02:30N 29°46' W 095°05'0 0.0
2017-Aug-19 02:00N 29°46' W 095°05'4 2.6
2017-Aug-19 00:33N 29°44' W 095°09'0 6.4
2017-Aug-19 00:29N 29°45' W 095°10'4 0.2
2017-Aug-18 06:38N 29°45' W 095°06'1 5.0
2017-Aug-18 06:28N 29°46' W 095°05'4 6.3
2017-Aug-18 05:53N 29°44' W 095°01'2 6.4
2017-Aug-18 05:30N 29°42' W 094°60'3 6.9
2017-Aug-18 05:00N 29°39' W 094°58'3 4.5
2017-Aug-18 04:26N 29°37' W 095°00'1 3.0
2017-Aug-18 04:00N 29°37' W 095°01'0 0.1
2017-Aug-18 03:24N 29°37' W 095°02'0 0.0
2017-Aug-18 02:57N 29°37' W 095°02'0 0.0
2017-Aug-17 23:27N 29°37' W 095°02'0 0.0
2017-Aug-17 22:50N 29°37' W 095°02'0 0.0
2017-Aug-17 22:29N 29°37' W 095°02'0 0.0
2017-Aug-17 22:00N 29°37' W 095°02'0 0.0
2017-Aug-17 21:30N 29°37' W 095°02'0 0.0
2017-Aug-17 21:00N 29°37' W 095°02'0 0.0
2017-Aug-17 20:30N 29°37' W 095°02'0 0.0
2017-Aug-17 19:57N 29°37' W 095°02'0 0.1
2017-Aug-17 19:30N 29°37' W 095°01'0 0.0
2017-Aug-17 19:00N 29°37' W 095°01'0 0.3
2017-Aug-17 18:30N 29°37' W 095°01'3 6.1
2017-Aug-17 18:00N 29°37' W 094°58'2 3.6
2017-Aug-17 17:30N 29°39' W 094°58'3 6.1
2017-Aug-17 17:00N 29°41' W 094°59'4 5.7
2017-Aug-17 16:21N 29°44' W 095°03'6 0.5
2017-Aug-17 03:53N 29°44' W 095°09'4 0.7
2017-Aug-16 22:23N 29°46' W 095°05'4 0.6
2017-Aug-16 16:26N 29°44' W 095°09'0 0.0
2017-Aug-15 06:46N 29°44' W 095°09'3 0.2
2017-Aug-14 09:21N 29°46' W 095°05'1 4.0
2017-Aug-14 09:00N 29°45' W 095°04'3 4.9
2017-Aug-14 08:24N 29°43' W 095°01'2 4.5
2017-Aug-14 07:59N 29°42' W 094°60'3 5.3
2017-Aug-14 07:30N 29°40' W 094°58'3 5.3
2017-Aug-14 07:00N 29°37' W 094°57'3 5.5
2017-Aug-14 06:30N 29°35' W 094°56'3 5.5
2017-Aug-14 05:57N 29°32' W 094°54'2 0.1
2017-Aug-12 16:00N 29°34' W 094°55'2 3.4
2017-Aug-12 15:30N 29°36' W 094°57'2 3.0
2017-Aug-12 14:48N 29°37' W 094°59'1 3.4
2017-Aug-12 14:30N 29°37' W 094°60'1 3.0
2017-Aug-12 14:00N 29°37' W 095°01'0 0.2
2017-Aug-12 13:30N 29°37' W 095°01'  

Dump ship's entire track history